sensor_id;sensor_type;location;lat;lon;timestamp;pressure;altitude;pressure_sealevel;temperature;humidity
9750;BME280;4914;43.218;27.908;2022-08-21T00:00:42;100085.16;;;25.24;100.00
9750;BME280;4914;43.218;27.908;2022-08-21T00:03:11;100080.63;;;25.17;100.00
9750;BME280;4914;43.218;27.908;2022-08-21T00:05:41;100082.13;;;25.13;100.00
9750;BME280;4914;43.218;27.908;2022-08-21T00:08:09;100079.03;;;25.10;100.00
9750;BME280;4914;43.218;27.908;2022-08-21T00:10:36;100080.09;;;25.09;100.00
9750;BME280;4914;43.218;27.908;2022-08-21T00:13:04;100078.28;;;25.21;100.00
9750;BME280;4914;43.218;27.908;2022-08-21T00:15:33;100078.88;;;25.23;100.00
9750;BME280;4914;43.218;27.908;2022-08-21T00:18:01;100081.69;;;25.16;100.00
9750;BME280;4914;43.218;27.908;2022-08-21T00:20:30;100072.09;;;25.14;100.00
9750;BME280;4914;43.218;27.908;2022-08-21T00:22:58;100073.75;;;25.15;100.00
9750;BME280;4914;43.218;27.908;2022-08-21T00:25:25;100079.56;;;25.18;100.00
9750;BME280;4914;43.218;27.908;2022-08-21T00:27:53;100071.25;;;25.13;100.00
9750;BME280;4914;43.218;27.908;2022-08-21T00:30:22;100061.38;;;25.19;100.00
9750;BME280;4914;43.218;27.908;2022-08-21T00:32:50;100062.03;;;25.14;100.00
9750;BME280;4914;43.218;27.908;2022-08-21T00:35:20;100063.56;;;25.10;100.00
9750;BME280;4914;43.218;27.908;2022-08-21T00:37:49;100058.59;;;25.07;100.00
9750;BME280;4914;43.218;27.908;2022-08-21T00:40:18;100058.59;;;25.07;100.00
9750;BME280;4914;43.218;27.908;2022-08-21T00:42:46;100057.50;;;25.08;100.00
9750;BME280;4914;43.218;27.908;2022-08-21T00:45:13;100051.03;;;25.09;100.00
9750;BME280;4914;43.218;27.908;2022-08-21T00:47:40;100050.44;;;25.07;100.00
9750;BME280;4914;43.218;27.908;2022-08-21T00:50:09;100050.03;;;25.04;100.00
9750;BME280;4914;43.218;27.908;2022-08-21T00:52:37;100053.84;;;25.03;100.00
9750;BME280;4914;43.218;27.908;2022-08-21T00:55:09;100054.78;;;25.08;100.00
9750;BME280;4914;43.218;27.908;2022-08-21T00:57:39;100060.00;;;25.10;100.00
9750;BME280;4914;43.218;27.908;2022-08-21T01:00:12;100049.91;;;25.17;100.00
9750;BME280;4914;43.218;27.908;2022-08-21T01:02:40;100045.72;;;25.33;100.00
9750;BME280;4914;43.218;27.908;2022-08-21T01:05:08;100054.81;;;25.27;100.00
9750;BME280;4914;43.218;27.908;2022-08-21T01:07:35;100059.84;;;25.23;100.00
9750;BME280;4914;43.218;27.908;2022-08-21T01:10:03;100057.59;;;25.20;100.00
9750;BME280;4914;43.218;27.908;2022-08-21T01:12:33;100054.03;;;25.19;100.00
9750;BME280;4914;43.218;27.908;2022-08-21T01:15:02;100045.31;;;25.17;100.00
9750;BME280;4914;43.218;27.908;2022-08-21T01:17:30;100052.38;;;25.18;100.00
9750;BME280;4914;43.218;27.908;2022-08-21T01:19:59;100062.19;;;25.19;100.00
9750;BME280;4914;43.218;27.908;2022-08-21T01:22:27;100060.38;;;25.13;100.00
9750;BME280;4914;43.218;27.908;2022-08-21T01:24:54;100052.06;;;25.08;100.00
9750;BME280;4914;43.218;27.908;2022-08-21T01:27:21;100055.09;;;25.00;100.00
9750;BME280;4914;43.218;27.908;2022-08-21T01:29:52;100055.41;;;24.92;100.00
9750;BME280;4914;43.218;27.908;2022-08-21T01:32:22;100056.44;;;24.91;100.00
9750;BME280;4914;43.218;27.908;2022-08-21T01:34:50;100069.31;;;25.02;100.00
9750;BME280;4914;43.218;27.908;2022-08-21T01:37:19;100066.59;;;25.02;100.00
9750;BME280;4914;43.218;27.908;2022-08-21T01:39:48;100065.22;;;24.93;100.00
9750;BME280;4914;43.218;27.908;2022-08-21T01:42:15;100060.78;;;24.74;100.00
9750;BME280;4914;43.218;27.908;2022-08-21T01:44:42;100060.00;;;24.67;100.00
9750;BME280;4914;43.218;27.908;2022-08-21T01:47:12;100054.94;;;24.70;100.00
9750;BME280;4914;43.218;27.908;2022-08-21T01:49:39;100052.91;;;24.66;100.00
9750;BME280;4914;43.218;27.908;2022-08-21T01:52:07;100052.91;;;24.66;100.00
9750;BME280;4914;43.218;27.908;2022-08-21T01:54:34;100048.78;;;24.63;100.00
9750;BME280;4914;43.218;27.908;2022-08-21T01:57:03;100043.34;;;24.63;100.00
9750;BME280;4914;43.218;27.908;2022-08-21T01:59:31;100037.44;;;24.66;100.00
9750;BME280;4914;43.218;27.908;2022-08-21T02:01:58;100035.56;;;24.67;100.00
9750;BME280;4914;43.218;27.908;2022-08-21T02:04:25;100038.50;;;24.65;100.00
9750;BME280;4914;43.218;27.908;2022-08-21T02:06:52;100035.41;;;24.62;100.00
9750;BME280;4914;43.218;27.908;2022-08-21T02:09:19;100029.75;;;24.63;100.00
9750;BME280;4914;43.218;27.908;2022-08-21T02:11:48;100033.75;;;24.61;100.00
9750;BME280;4914;43.218;27.908;2022-08-21T02:14:16;100029.59;;;24.58;100.00
9750;BME280;4914;43.218;27.908;2022-08-21T02:16:44;100034.34;;;24.63;100.00
9750;BME280;4914;43.218;27.908;2022-08-21T02:19:13;100040.31;;;24.71;100.00
9750;BME280;4914;43.218;27.908;2022-08-21T02:21:41;100035.56;;;24.67;100.00
9750;BME280;4914;43.218;27.908;2022-08-21T02:24:09;100041.22;;;24.65;100.00
9750;BME280;4914;43.218;27.908;2022-08-21T02:26:36;100038.63;;;24.52;100.00
9750;BME280;4914;43.218;27.908;2022-08-21T02:29:04;100042.63;;;24.50;100.00
9750;BME280;4914;43.218;27.908;2022-08-21T02:31:32;100052.88;;;24.48;100.00
9750;BME280;4914;43.218;27.908;2022-08-21T02:33:59;100060.00;;;24.42;100.00
9750;BME280;4914;43.218;27.908;2022-08-21T02:36:26;100057.38;;;24.36;100.00
9750;BME280;4914;43.218;27.908;2022-08-21T02:38:53;100056.16;;;24.31;100.00
9750;BME280;4914;43.218;27.908;2022-08-21T02:41:20;100053.66;;;24.30;100.00
9750;BME280;4914;43.218;27.908;2022-08-21T02:43:48;100057.59;;;24.34;100.00
9750;BME280;4914;43.218;27.908;2022-08-21T02:46:16;100063.00;;;24.34;100.00
9750;BME280;4914;43.218;27.908;2022-08-21T02:48:45;100065.72;;;24.34;100.00
9750;BME280;4914;43.218;27.908;2022-08-21T02:51:15;100059.47;;;24.33;100.00
9750;BME280;4914;43.218;27.908;2022-08-21T02:53:43;100066.09;;;24.38;100.00
9750;BME280;4914;43.218;27.908;2022-08-21T02:56:13;100062.19;;;24.33;100.00
9750;BME280;4914;43.218;27.908;2022-08-21T02:58:42;100069.94;;;24.30;100.00
9750;BME280;4914;43.218;27.908;2022-08-21T03:01:09;100063.50;;;24.24;100.00
9750;BME280;4914;43.218;27.908;2022-08-21T03:03:38;100060.00;;;24.17;100.00
9750;BME280;4914;43.218;27.908;2022-08-21T03:06:09;100063.78;;;24.10;100.00
9750;BME280;4914;43.218;27.908;2022-08-21T03:08:37;100061.75;;;24.05;100.00
9750;BME280;4914;43.218;27.908;2022-08-21T03:11:05;100063.03;;;24.03;100.00
9750;BME280;4914;43.218;27.908;2022-08-21T03:13:32;100062.41;;;24.01;100.00
9750;BME280;4914;43.218;27.908;2022-08-21T03:15:59;100058.00;;;24.00;100.00
9750;BME280;4914;43.218;27.908;2022-08-21T03:18:26;100059.31;;;23.97;100.00
9750;BME280;4914;43.218;27.908;2022-08-21T03:20:53;100055.13;;;23.95;100.00
9750;BME280;4914;43.218;27.908;2022-08-21T03:23:21;100057.84;;;23.95;100.00
9750;BME280;4914;43.218;27.908;2022-08-21T03:25:48;100063.50;;;23.93;100.00
9750;BME280;4914;43.218;27.908;2022-08-21T03:28:19;100063.91;;;23.90;100.00
9750;BME280;4914;43.218;27.908;2022-08-21T03:30:49;100067.00;;;23.94;100.00
9750;BME280;4914;43.218;27.908;2022-08-21T03:33:17;100072.19;;;24.02;100.00
9750;BME280;4914;43.218;27.908;2022-08-21T03:35:47;100054.94;;;23.89;100.00
9750;BME280;4914;43.218;27.908;2022-08-21T03:38:14;100065.59;;;23.91;100.00
9750;BME280;4914;43.218;27.908;2022-08-21T03:40:43;100064.97;;;23.89;100.00
9750;BME280;4914;43.218;27.908;2022-08-21T03:43:10;100076.66;;;23.89;100.00
9750;BME280;4914;43.218;27.908;2022-08-21T03:45:38;100068.09;;;23.93;100.00
9750;BME280;4914;43.218;27.908;2022-08-21T03:48:06;100076.41;;;23.98;100.00
9750;BME280;4914;43.218;27.908;2022-08-21T03:50:37;100078.00;;;24.05;100.00
9750;BME280;4914;43.218;27.908;2022-08-21T03:53:04;100073.94;;;23.89;100.00
9750;BME280;4914;43.218;27.908;2022-08-21T03:55:31;100086.06;;;23.87;100.00
9750;BME280;4914;43.218;27.908;2022-08-21T03:57:59;100081.06;;;23.84;100.00
9750;BME280;4914;43.218;27.908;2022-08-21T04:00:26;100081.88;;;23.84;100.00
9750;BME280;4914;43.218;27.908;2022-08-21T04:02:54;100081.28;;;23.82;100.00
9750;BME280;4914;43.218;27.908;2022-08-21T04:05:21;100079.81;;;23.86;100.00
9750;BME280;4914;43.218;27.908;2022-08-21T04:07:57;100083.94;;;23.89;100.00
9750;BME280;4914;43.218;27.908;2022-08-21T04:10:25;100087.09;;;23.93;100.00
9750;BME280;4914;43.218;27.908;2022-08-21T04:12:52;100091.03;;;23.90;100.00
9750;BME280;4914;43.218;27.908;2022-08-21T04:15:22;100097.31;;;23.90;100.00
9750;BME280;4914;43.218;27.908;2022-08-21T04:17:49;100089.78;;;23.93;100.00
9750;BME280;4914;43.218;27.908;2022-08-21T04:20:17;100088.72;;;23.94;100.00
9750;BME280;4914;43.218;27.908;2022-08-21T04:22:44;100080.38;;;23.95;100.00
9750;BME280;4914;43.218;27.908;2022-08-21T04:25:12;100084.75;;;23.96;100.00
9750;BME280;4914;43.218;27.908;2022-08-21T04:27:40;100075.97;;;24.01;100.00
9750;BME280;4914;43.218;27.908;2022-08-21T04:30:09;100074.91;;;24.02;100.00
9750;BME280;4914;43.218;27.908;2022-08-21T04:32:38;100073.22;;;24.07;100.00
9750;BME280;4914;43.218;27.908;2022-08-21T04:35:08;100077.03;;;24.31;100.00
9750;BME280;4914;43.218;27.908;2022-08-21T04:37:36;100079.84;;;24.43;100.00
9750;BME280;4914;43.218;27.908;2022-08-21T04:40:04;100088.06;;;24.36;100.00
9750;BME280;4914;43.218;27.908;2022-08-21T04:42:32;100089.31;;;24.33;100.00
9750;BME280;4914;43.218;27.908;2022-08-21T04:44:59;100076.38;;;24.36;100.00
9750;BME280;4914;43.218;27.908;2022-08-21T04:47:26;100079.47;;;24.39;100.00
9750;BME280;4914;43.218;27.908;2022-08-21T04:49:54;100075.88;;;24.45;100.00
9750;BME280;4914;43.218;27.908;2022-08-21T04:52:22;100073.09;;;24.52;100.00
9750;BME280;4914;43.218;27.908;2022-08-21T04:54:52;100076.13;;;24.62;100.00
9750;BME280;4914;43.218;27.908;2022-08-21T04:57:19;100068.31;;;24.72;100.00
9750;BME280;4914;43.218;27.908;2022-08-21T04:59:48;100066.13;;;24.87;100.00
9750;BME280;4914;43.218;27.908;2022-08-21T05:02:17;100061.44;;;24.94;100.00
9750;BME280;4914;43.218;27.908;2022-08-21T05:04:51;100061.75;;;25.04;100.00
9750;BME280;4914;43.218;27.908;2022-08-21T05:07:22;100047.88;;;25.12;100.00
9750;BME280;4914;43.218;27.908;2022-08-21T05:09:51;100054.88;;;25.20;100.00
9750;BME280;4914;43.218;27.908;2022-08-21T05:12:18;100056.00;;;25.31;100.00
9750;BME280;4914;43.218;27.908;2022-08-21T05:14:46;100045.88;;;25.38;100.00
9750;BME280;4914;43.218;27.908;2022-08-21T05:17:13;100048.88;;;25.48;100.00
9750;BME280;4914;43.218;27.908;2022-08-21T05:19:40;100046.16;;;25.48;100.00
9750;BME280;4914;43.218;27.908;2022-08-21T05:22:07;100037.75;;;25.56;100.00
9750;BME280;4914;43.218;27.908;2022-08-21T05:24:36;100043.44;;;25.66;100.00
9750;BME280;4914;43.218;27.908;2022-08-21T05:27:03;100044.47;;;25.83;100.00
9750;BME280;4914;43.218;27.908;2022-08-21T05:29:32;100049.03;;;26.13;100.00
9750;BME280;4914;43.218;27.908;2022-08-21T05:31:59;100046.47;;;26.18;100.00
9750;BME280;4914;43.218;27.908;2022-08-21T05:34:26;100053.13;;;26.22;100.00
9750;BME280;4914;43.218;27.908;2022-08-21T05:36:53;100044.47;;;26.25;100.00
9750;BME280;4914;43.218;27.908;2022-08-21T05:39:20;100042.22;;;26.22;100.00
9750;BME280;4914;43.218;27.908;2022-08-21T05:41:49;100049.69;;;26.38;100.00
9750;BME280;4914;43.218;27.908;2022-08-21T05:44:15;100043.66;;;26.36;100.00
9750;BME280;4914;43.218;27.908;2022-08-21T05:46:42;100045.78;;;26.34;100.00
9750;BME280;4914;43.218;27.908;2022-08-21T05:49:10;100050.03;;;26.30;100.00
9750;BME280;4914;43.218;27.908;2022-08-21T05:51:39;100044.25;;;26.26;100.00
9750;BME280;4914;43.218;27.908;2022-08-21T05:54:07;100046.88;;;26.33;100.00
9750;BME280;4914;43.218;27.908;2022-08-21T05:56:34;100043.66;;;26.36;100.00
9750;BME280;4914;43.218;27.908;2022-08-21T05:59:02;100044.50;;;26.48;100.00
9750;BME280;4914;43.218;27.908;2022-08-21T06:01:30;100039.88;;;26.72;100.00
9750;BME280;4914;43.218;27.908;2022-08-21T06:03:57;100043.22;;;26.85;100.00
9750;BME280;4914;43.218;27.908;2022-08-21T06:06:24;100040.16;;;26.94;100.00
9750;BME280;4914;43.218;27.908;2022-08-21T06:08:51;100055.06;;;27.03;100.00
9750;BME280;4914;43.218;27.908;2022-08-21T06:11:18;100042.88;;;26.94;100.00
9750;BME280;4914;43.218;27.908;2022-08-21T06:13:45;100035.59;;;27.11;100.00
9750;BME280;4914;43.218;27.908;2022-08-21T06:16:15;100047.31;;;27.23;100.00
9750;BME280;4914;43.218;27.908;2022-08-21T06:18:44;100049.72;;;27.08;100.00
9750;BME280;4914;43.218;27.908;2022-08-21T06:21:11;100042.34;;;27.20;100.00
9750;BME280;4914;43.218;27.908;2022-08-21T06:23:39;100054.13;;;27.09;100.00
9750;BME280;4914;43.218;27.908;2022-08-21T06:26:07;100048.78;;;27.02;100.00
9750;BME280;4914;43.218;27.908;2022-08-21T06:28:35;100042.03;;;27.05;100.00
9750;BME280;4914;43.218;27.908;2022-08-21T06:31:10;100042.88;;;26.94;100.00
9750;BME280;4914;43.218;27.908;2022-08-21T06:33:38;100051.63;;;26.96;100.00
9750;BME280;4914;43.218;27.908;2022-08-21T06:36:06;100049.50;;;27.09;100.00
9750;BME280;4914;43.218;27.908;2022-08-21T06:38:33;100059.41;;;27.15;100.00
9750;BME280;4914;43.218;27.908;2022-08-21T06:41:00;100058.09;;;27.29;100.00
9750;BME280;4914;43.218;27.908;2022-08-21T06:43:27;100048.13;;;27.35;100.00
9750;BME280;4914;43.218;27.908;2022-08-21T06:45:53;100047.25;;;27.46;100.00
9750;BME280;4914;43.218;27.908;2022-08-21T06:48:21;100059.47;;;27.55;100.00
9750;BME280;4914;43.218;27.908;2022-08-21T06:50:49;100057.50;;;27.67;100.00
9750;BME280;4914;43.218;27.908;2022-08-21T06:53:18;100069.13;;;27.74;100.00
9750;BME280;4914;43.218;27.908;2022-08-21T06:55:46;100069.31;;;27.85;100.00
9750;BME280;4914;43.218;27.908;2022-08-21T06:58:14;100068.00;;;27.87;100.00
9750;BME280;4914;43.218;27.908;2022-08-21T07:00:43;100064.53;;;27.92;100.00
9750;BME280;4914;43.218;27.908;2022-08-21T07:03:16;100065.53;;;27.86;100.00
9750;BME280;4914;43.218;27.908;2022-08-21T07:05:43;100067.56;;;27.79;100.00
9750;BME280;4914;43.218;27.908;2022-08-21T07:08:12;100063.81;;;27.68;100.00
9750;BME280;4914;43.218;27.908;2022-08-21T07:10:39;100063.69;;;27.63;100.00
9750;BME280;4914;43.218;27.908;2022-08-21T07:13:05;100063.53;;;27.81;100.00
9750;BME280;4914;43.218;27.908;2022-08-21T07:15:32;100066.69;;;27.90;100.00
9750;BME280;4914;43.218;27.908;2022-08-21T07:18:00;100059.63;;;28.05;100.00
9750;BME280;4914;43.218;27.908;2022-08-21T07:20:28;100061.31;;;28.23;100.00
9750;BME280;4914;43.218;27.908;2022-08-21T07:22:56;100055.50;;;28.36;100.00
9750;BME280;4914;43.218;27.908;2022-08-21T07:25:25;100056.44;;;28.42;100.00
9750;BME280;4914;43.218;27.908;2022-08-21T07:27:52;100053.47;;;28.43;100.00
9750;BME280;4914;43.218;27.908;2022-08-21T07:30:19;100055.69;;;28.46;100.00
9750;BME280;4914;43.218;27.908;2022-08-21T07:32:46;100049.72;;;28.49;100.00
9750;BME280;4914;43.218;27.908;2022-08-21T07:35:14;100049.41;;;28.63;100.00
9750;BME280;4914;43.218;27.908;2022-08-21T07:37:41;100056.50;;;28.63;100.00
9750;BME280;4914;43.218;27.908;2022-08-21T07:40:09;100051.22;;;28.74;100.00
9750;BME280;4914;43.218;27.908;2022-08-21T07:42:40;100052.03;;;28.91;100.00
9750;BME280;4914;43.218;27.908;2022-08-21T07:45:09;100044.13;;;28.94;100.00
9750;BME280;4914;43.218;27.908;2022-08-21T07:47:36;100046.50;;;29.08;100.00
9750;BME280;4914;43.218;27.908;2022-08-21T07:50:04;100052.03;;;28.91;100.00
9750;BME280;4914;43.218;27.908;2022-08-21T07:52:32;100040.13;;;29.02;100.00
9750;BME280;4914;43.218;27.908;2022-08-21T07:54:59;100039.28;;;28.80;100.00
9750;BME280;4914;43.218;27.908;2022-08-21T07:57:27;100037.13;;;28.82;100.00
9750;BME280;4914;43.218;27.908;2022-08-21T07:59:55;100034.13;;;28.83;100.00
9750;BME280;4914;43.218;27.908;2022-08-21T08:02:23;100040.56;;;28.94;100.00
9750;BME280;4914;43.218;27.908;2022-08-21T08:04:51;100029.09;;;29.14;100.00
9750;BME280;4914;43.218;27.908;2022-08-21T08:07:18;100041.47;;;29.21;100.00
9750;BME280;4914;43.218;27.908;2022-08-21T08:09:45;100044.06;;;29.50;87.66
9750;BME280;4914;43.218;27.908;2022-08-21T08:12:12;100031.97;;;29.45;90.37
9750;BME280;4914;43.218;27.908;2022-08-21T08:14:39;100030.50;;;29.38;98.96
9750;BME280;4914;43.218;27.908;2022-08-21T08:17:08;100025.03;;;29.38;100.00
9750;BME280;4914;43.218;27.908;2022-08-21T08:19:34;100020.53;;;29.49;100.00
9750;BME280;4914;43.218;27.908;2022-08-21T08:22:11;100025.47;;;29.52;100.00
9750;BME280;4914;43.218;27.908;2022-08-21T08:24:38;100017.66;;;29.38;100.00
9750;BME280;4914;43.218;27.908;2022-08-21T08:27:05;100017.59;;;29.33;100.00
9750;BME280;4914;43.218;27.908;2022-08-21T08:29:32;100018.97;;;29.58;100.00
9750;BME280;4914;43.218;27.908;2022-08-21T08:31:59;100029.25;;;29.72;98.20
9750;BME280;4914;43.218;27.908;2022-08-21T08:34:27;100027.03;;;29.69;98.83
9750;BME280;4914;43.218;27.908;2022-08-21T08:36:55;100030.16;;;29.13;100.00
9750;BME280;4914;43.218;27.908;2022-08-21T08:39:23;100024.56;;;29.02;100.00
9750;BME280;4914;43.218;27.908;2022-08-21T08:41:52;100015.53;;;29.02;100.00
9750;BME280;4914;43.218;27.908;2022-08-21T08:44:22;100012.16;;;29.17;100.00
9750;BME280;4914;43.218;27.908;2022-08-21T08:46:51;100007.59;;;29.22;100.00
9750;BME280;4914;43.218;27.908;2022-08-21T08:49:21;100022.91;;;29.67;100.00
9750;BME280;4914;43.218;27.908;2022-08-21T08:51:54;100016.84;;;29.65;100.00
9750;BME280;4914;43.218;27.908;2022-08-21T08:54:27;100012.84;;;29.99;100.00
9750;BME280;4914;43.218;27.908;2022-08-21T08:56:58;100012.56;;;30.32;98.83
9750;BME280;4914;43.218;27.908;2022-08-21T08:59:27;100004.06;;;30.66;97.52
9750;BME280;4914;43.218;27.908;2022-08-21T09:01:56;100007.69;;;31.29;95.22
9750;BME280;4914;43.218;27.908;2022-08-21T09:04:26;100007.34;;;32.43;87.96
9750;BME280;4914;43.218;27.908;2022-08-21T09:07:05;99998.50;;;32.81;79.29
9750;BME280;4914;43.218;27.908;2022-08-21T09:09:46;99990.22;;;33.61;72.58
9750;BME280;4914;43.218;27.908;2022-08-21T09:12:20;100002.13;;;34.87;62.88
9750;BME280;4914;43.218;27.908;2022-08-21T09:14:59;99984.38;;;34.93;62.31
9750;BME280;4914;43.218;27.908;2022-08-21T09:18:03;99993.53;;;35.12;60.94
9750;BME280;4914;43.218;27.908;2022-08-21T09:20:37;99992.59;;;36.34;54.37
9750;BME280;4914;43.218;27.908;2022-08-21T09:23:16;99977.84;;;37.26;51.23
9750;BME280;4914;43.218;27.908;2022-08-21T09:25:54;99981.22;;;36.95;51.98
9750;BME280;4914;43.218;27.908;2022-08-21T09:28:22;99978.09;;;38.10;48.17
9750;BME280;4914;43.218;27.908;2022-08-21T09:30:50;99981.34;;;38.56;46.70
9750;BME280;4914;43.218;27.908;2022-08-21T09:33:20;99970.69;;;38.50;46.07
9750;BME280;4914;43.218;27.908;2022-08-21T09:35:50;99975.03;;;38.42;46.10
9750;BME280;4914;43.218;27.908;2022-08-21T09:38:28;99974.13;;;38.24;46.59
9750;BME280;4914;43.218;27.908;2022-08-21T09:41:00;99967.03;;;39.19;45.22
9750;BME280;4914;43.218;27.908;2022-08-21T09:43:28;99965.50;;;39.79;42.76
9750;BME280;4914;43.218;27.908;2022-08-21T09:46:06;99971.22;;;39.99;42.71
9750;BME280;4914;43.218;27.908;2022-08-21T09:48:41;99956.91;;;39.23;43.47
9750;BME280;4914;43.218;27.908;2022-08-21T09:51:11;99961.69;;;38.83;44.85
9750;BME280;4914;43.218;27.908;2022-08-21T09:53:44;99960.41;;;39.46;42.29
9750;BME280;4914;43.218;27.908;2022-08-21T09:56:28;99950.50;;;38.97;44.89
9750;BME280;4914;43.218;27.908;2022-08-21T09:59:17;99958.66;;;38.94;45.38
9750;BME280;4914;43.218;27.908;2022-08-21T10:01:46;99953.41;;;37.28;50.62
9750;BME280;4914;43.218;27.908;2022-08-21T10:04:14;99953.97;;;38.41;47.76
9750;BME280;4914;43.218;27.908;2022-08-21T10:06:41;99958.53;;;38.68;46.58
9750;BME280;4914;43.218;27.908;2022-08-21T10:09:12;99946.44;;;37.66;50.93
9750;BME280;4914;43.218;27.908;2022-08-21T10:11:40;99948.72;;;37.64;52.24
9750;BME280;4914;43.218;27.908;2022-08-21T10:14:19;99960.03;;;37.54;51.50
9750;BME280;4914;43.218;27.908;2022-08-21T10:16:59;99960.59;;;38.54;48.19
9750;BME280;4914;43.218;27.908;2022-08-21T10:19:38;99954.22;;;38.00;51.01
9750;BME280;4914;43.218;27.908;2022-08-21T10:22:17;99957.19;;;37.04;54.59
9750;BME280;4914;43.218;27.908;2022-08-21T10:24:53;99952.00;;;36.62;58.52
9750;BME280;4914;43.218;27.908;2022-08-21T10:27:31;99946.84;;;38.18;51.92
9750;BME280;4914;43.218;27.908;2022-08-21T10:30:06;99942.19;;;37.33;54.37
9750;BME280;4914;43.218;27.908;2022-08-21T10:32:52;99940.22;;;37.83;53.65
9750;BME280;4914;43.218;27.908;2022-08-21T10:35:24;99937.72;;;38.48;50.55
9750;BME280;4914;43.218;27.908;2022-08-21T10:38:15;99945.38;;;36.44;56.34
9750;BME280;4914;43.218;27.908;2022-08-21T10:40:52;99938.28;;;36.24;61.92
9750;BME280;4914;43.218;27.908;2022-08-21T10:43:46;99934.06;;;36.73;59.16
9750;BME280;4914;43.218;27.908;2022-08-21T10:46:25;99926.59;;;36.14;62.97
9750;BME280;4914;43.218;27.908;2022-08-21T10:49:10;99928.16;;;37.65;57.86
9750;BME280;4914;43.218;27.908;2022-08-21T10:51:49;99919.84;;;37.87;56.77
9750;BME280;4914;43.218;27.908;2022-08-21T10:54:27;99927.38;;;38.79;53.23
9750;BME280;4914;43.218;27.908;2022-08-21T10:57:06;99937.50;;;38.14;53.88
9750;BME280;4914;43.218;27.908;2022-08-21T10:59:41;99924.94;;;37.94;55.27
9750;BME280;4914;43.218;27.908;2022-08-21T11:02:15;99923.75;;;37.86;56.29
9750;BME280;4914;43.218;27.908;2022-08-21T11:04:50;99916.06;;;38.06;54.40
9750;BME280;4914;43.218;27.908;2022-08-21T11:07:22;99927.47;;;37.60;55.26
9750;BME280;4914;43.218;27.908;2022-08-21T11:09:55;99925.50;;;38.27;52.65
9750;BME280;4914;43.218;27.908;2022-08-21T11:12:29;99924.44;;;37.92;52.66
9750;BME280;4914;43.218;27.908;2022-08-21T11:15:02;99920.09;;;36.64;57.58
9750;BME280;4914;43.218;27.908;2022-08-21T11:17:35;99915.06;;;36.80;57.33
9750;BME280;4914;43.218;27.908;2022-08-21T11:20:07;99915.38;;;37.06;58.22
9750;BME280;4914;43.218;27.908;2022-08-21T11:22:47;99911.91;;;36.59;60.60
9750;BME280;4914;43.218;27.908;2022-08-21T11:25:21;99919.03;;;36.19;61.88
9750;BME280;4914;43.218;27.908;2022-08-21T11:27:52;99905.53;;;36.86;61.12
9750;BME280;4914;43.218;27.908;2022-08-21T11:30:24;99916.00;;;37.17;58.45
9750;BME280;4914;43.218;27.908;2022-08-21T11:33:06;99914.31;;;36.34;62.12
9750;BME280;4914;43.218;27.908;2022-08-21T11:35:39;99911.13;;;36.26;64.02
9750;BME280;4914;43.218;27.908;2022-08-21T11:38:25;99906.81;;;35.88;65.00
9750;BME280;4914;43.218;27.908;2022-08-21T11:41:06;99909.06;;;37.28;58.43
9750;BME280;4914;43.218;27.908;2022-08-21T11:43:41;99912.81;;;37.09;60.04
9750;BME280;4914;43.218;27.908;2022-08-21T11:46:23;99907.16;;;37.15;58.35
9750;BME280;4914;43.218;27.908;2022-08-21T11:49:06;99908.38;;;36.26;62.46
9750;BME280;4914;43.218;27.908;2022-08-21T11:51:41;99884.47;;;37.26;58.88
9750;BME280;4914;43.218;27.908;2022-08-21T11:54:16;99889.16;;;36.76;63.45
9750;BME280;4914;43.218;27.908;2022-08-21T11:56:51;99880.13;;;36.70;64.10
9750;BME280;4914;43.218;27.908;2022-08-21T11:59:23;99883.00;;;35.92;70.49
9750;BME280;4914;43.218;27.908;2022-08-21T12:01:54;99889.16;;;35.70;73.26
9750;BME280;4914;43.218;27.908;2022-08-21T12:04:26;99880.00;;;34.52;80.11
9750;BME280;4914;43.218;27.908;2022-08-21T12:06:54;99883.44;;;33.82;89.10
9750;BME280;4914;43.218;27.908;2022-08-21T12:09:32;99882.88;;;33.02;95.90
9750;BME280;4914;43.218;27.908;2022-08-21T12:12:03;99869.63;;;33.19;94.36
9750;BME280;4914;43.218;27.908;2022-08-21T12:14:40;99864.84;;;32.80;100.00
9750;BME280;4914;43.218;27.908;2022-08-21T12:17:09;99856.94;;;32.59;100.00
9750;BME280;4914;43.218;27.908;2022-08-21T12:19:44;99855.13;;;32.24;100.00
9750;BME280;4914;43.218;27.908;2022-08-21T12:22:13;99847.31;;;32.61;100.00
9750;BME280;4914;43.218;27.908;2022-08-21T12:24:42;99852.38;;;32.24;100.00
9750;BME280;4914;43.218;27.908;2022-08-21T12:27:20;99840.88;;;31.91;100.00
9750;BME280;4914;43.218;27.908;2022-08-21T12:29:53;99845.25;;;32.08;100.00
9750;BME280;4914;43.218;27.908;2022-08-21T12:32:28;99841.44;;;31.98;100.00
9750;BME280;4914;43.218;27.908;2022-08-21T12:35:01;99854.59;;;32.01;100.00
9750;BME280;4914;43.218;27.908;2022-08-21T12:37:39;99843.91;;;31.85;100.00
9750;BME280;4914;43.218;27.908;2022-08-21T12:40:11;99855.19;;;31.68;100.00
9750;BME280;4914;43.218;27.908;2022-08-21T12:42:45;99863.63;;;31.21;100.00
9750;BME280;4914;43.218;27.908;2022-08-21T12:45:19;99867.44;;;31.05;100.00
9750;BME280;4914;43.218;27.908;2022-08-21T12:47:50;99866.03;;;30.97;100.00
9750;BME280;4914;43.218;27.908;2022-08-21T12:50:20;99852.25;;;30.82;100.00
9750;BME280;4914;43.218;27.908;2022-08-21T12:52:55;99857.88;;;31.12;100.00
9750;BME280;4914;43.218;27.908;2022-08-21T12:55:29;99868.88;;;31.43;100.00
9750;BME280;4914;43.218;27.908;2022-08-21T12:57:57;99868.09;;;31.68;100.00
9750;BME280;4914;43.218;27.908;2022-08-21T13:00:29;99861.75;;;31.77;100.00
9750;BME280;4914;43.218;27.908;2022-08-21T13:02:57;99861.22;;;31.60;100.00
9750;BME280;4914;43.218;27.908;2022-08-21T13:05:32;99869.69;;;31.53;100.00
9750;BME280;4914;43.218;27.908;2022-08-21T13:08:03;99865.03;;;31.49;100.00
9750;BME280;4914;43.218;27.908;2022-08-21T13:10:32;99867.47;;;31.20;100.00